createdAt,value
2023-03-16T00:00:32.921Z,73.80
2023-03-16T00:03:20.833Z,73.61
2023-03-16T00:05:51.669Z,73.78
2023-03-16T00:08:21.479Z,74.38
2023-03-16T00:10:50.357Z,74.04
2023-03-16T00:13:23.811Z,74.40
2023-03-16T00:15:54.103Z,74.79
2023-03-16T00:18:27.393Z,74.62
2023-03-16T00:21:02.236Z,74.38
2023-03-16T00:23:35.682Z,74.29
2023-03-16T00:26:07.774Z,74.40
2023-03-16T00:28:37.946Z,74.35
2023-03-16T00:31:11.907Z,74.12
2023-03-16T00:33:44.020Z,74.29
2023-03-16T00:36:13.761Z,74.44
2023-03-16T00:38:45.236Z,75.07
2023-03-16T00:41:16.732Z,75.38
2023-03-16T00:43:46.160Z,75.23
2023-03-16T00:46:18.502Z,75.50
2023-03-16T00:48:49.488Z,75.62
2023-03-16T00:51:19.904Z,75.54
2023-03-16T00:53:49.095Z,75.40
2023-03-16T00:56:18.698Z,75.67
2023-03-16T00:58:47.788Z,75.81
2023-03-16T01:01:21.915Z,74.80
2023-03-16T01:03:52.506Z,74.70
2023-03-16T01:06:22.281Z,74.82
2023-03-16T01:08:52.422Z,74.39
2023-03-16T01:11:23.809Z,74.43
2023-03-16T01:13:54.443Z,75.10
2023-03-16T01:16:24.298Z,74.78
2023-03-16T01:18:55.302Z,75.12
2023-03-16T01:21:25.265Z,74.66
2023-03-16T01:23:54.861Z,74.83
2023-03-16T01:26:25.345Z,75.40
2023-03-16T01:28:55.036Z,75.77
2023-03-16T01:31:24.748Z,75.25
2023-03-16T01:33:55.279Z,75.55
2023-03-16T01:36:28.004Z,75.32
2023-03-16T01:39:02.350Z,75.36
2023-03-16T01:41:37.085Z,76.00
2023-03-16T01:44:06.709Z,75.63
2023-03-16T01:46:35.933Z,75.34
2023-03-16T01:49:14.698Z,76.05
2023-03-16T01:51:51.678Z,75.96
2023-03-16T01:54:27.575Z,76.11
2023-03-16T01:57:07.403Z,76.34
2023-03-16T01:59:44.104Z,76.46
2023-03-16T02:02:16.686Z,76.55
2023-03-16T02:04:55.536Z,76.58
2023-03-16T02:07:28.718Z,76.95
2023-03-16T02:10:02.489Z,76.37
2023-03-16T02:12:31.967Z,76.76
2023-03-16T02:15:03.578Z,76.72
2023-03-16T02:17:35.738Z,76.51
2023-03-16T02:20:26.385Z,76.78
2023-03-16T02:22:56.359Z,76.83
2023-03-16T02:25:36.027Z,76.84
2023-03-16T02:28:16.483Z,77.00
2023-03-16T02:30:49.755Z,76.57
2023-03-16T02:33:21.356Z,76.72
2023-03-16T02:35:50.719Z,76.19
2023-03-16T02:38:19.573Z,76.83
2023-03-16T02:41:01.100Z,76.82
2023-03-16T02:43:35.954Z,76.85
2023-03-16T02:46:21.644Z,76.89
2023-03-16T02:49:03.081Z,77.12
2023-03-16T02:51:33.186Z,77.00
2023-03-16T02:54:02.422Z,76.91
2023-03-16T02:56:34.482Z,76.88
2023-03-16T02:59:03.306Z,76.95
2023-03-16T03:01:36.655Z,76.48
2023-03-16T03:04:07.048Z,76.69
2023-03-16T03:06:36.483Z,77.04
2023-03-16T03:09:07.070Z,76.90
2023-03-16T03:11:36.302Z,77.27
2023-03-16T03:14:05.900Z,77.07
2023-03-16T03:16:37.245Z,77.13
2023-03-16T03:19:06.237Z,76.67
2023-03-16T03:21:39.093Z,76.66
2023-03-16T03:24:10.105Z,76.88
2023-03-16T03:26:39.691Z,76.58
2023-03-16T03:29:14.098Z,76.43
2023-03-16T03:31:44.748Z,76.92
2023-03-16T03:34:15.618Z,76.73
2023-03-16T03:36:44.780Z,77.13
2023-03-16T03:39:13.631Z,77.38
2023-03-16T03:41:42.971Z,76.39
2023-03-16T03:44:13.356Z,77.16
2023-03-16T03:46:44.093Z,76.76
2023-03-16T03:49:13.328Z,77.04
2023-03-16T03:51:42.525Z,76.73
2023-03-16T03:54:18.697Z,76.63
2023-03-16T03:57:10.069Z,77.00
2023-03-16T03:59:43.754Z,76.77
2023-03-16T04:02:32.955Z,77.12
2023-03-16T04:05:02.154Z,76.72
2023-03-16T04:07:32.364Z,77.16
2023-03-16T04:10:08.381Z,77.44
2023-03-16T04:12:41.630Z,77.45
2023-03-16T04:15:13.672Z,77.33
2023-03-16T04:17:56.741Z,77.18
2023-03-16T04:20:27.623Z,76.45
2023-03-16T04:22:58.816Z,77.09
2023-03-16T04:25:30.605Z,76.37
2023-03-16T04:28:02.127Z,76.67
2023-03-16T04:30:35.164Z,76.49
2023-03-16T04:33:22.886Z,76.84
2023-03-16T04:35:52.332Z,76.50
2023-03-16T04:38:23.469Z,76.46
2023-03-16T04:40:57.167Z,76.65
2023-03-16T04:43:34.381Z,76.87
2023-03-16T04:46:10.275Z,77.29
2023-03-16T04:48:41.398Z,76.95
2023-03-16T04:51:11.264Z,77.19
2023-03-16T04:53:45.981Z,77.48
2023-03-16T04:56:23.919Z,77.39
2023-03-16T04:58:58.641Z,77.55
2023-03-16T05:01:31.685Z,77.61
2023-03-16T05:04:05.073Z,77.57
2023-03-16T05:06:36.778Z,77.28
2023-03-16T05:09:08.533Z,77.43
2023-03-16T05:11:40.639Z,77.54
2023-03-16T05:14:12.500Z,77.66
2023-03-16T05:17:04.754Z,76.76
2023-03-16T05:19:36.256Z,77.56
2023-03-16T05:22:05.258Z,77.54
2023-03-16T05:24:34.843Z,77.98
2023-03-16T05:27:04.296Z,77.97
2023-03-16T05:29:34.445Z,77.93
2023-03-16T05:32:03.813Z,77.48
2023-03-16T05:34:35.824Z,77.62
2023-03-16T05:37:05.135Z,78.11
2023-03-16T05:39:35.805Z,77.70
2023-03-16T05:42:05.882Z,77.65
2023-03-16T05:44:51.179Z,77.52
2023-03-16T05:47:49.373Z,78.16
2023-03-16T05:50:21.776Z,78.24
2023-03-16T05:52:50.712Z,78.36
2023-03-16T05:55:24.669Z,78.44
2023-03-16T05:57:58.692Z,78.19
2023-03-16T06:00:30.155Z,78.21
2023-03-16T06:03:13.167Z,78.21
2023-03-16T06:05:43.698Z,78.11
2023-03-16T06:08:13.332Z,78.36
2023-03-16T06:10:47.412Z,78.74
2023-03-16T06:13:17.925Z,78.62
2023-03-16T06:15:47.152Z,78.51
2023-03-16T06:18:17.044Z,78.71
2023-03-16T06:20:49.584Z,78.39
2023-03-16T06:23:20.356Z,78.73
2023-03-16T06:25:51.381Z,78.76
2023-03-16T06:28:24.312Z,78.31
2023-03-16T06:30:55.896Z,78.12
2023-03-16T06:33:27.666Z,78.42
2023-03-16T06:35:58.192Z,77.84
2023-03-16T06:38:35.409Z,77.79
2023-03-16T06:41:40.209Z,76.84
2023-03-16T06:44:09.404Z,76.81
2023-03-16T06:46:43.847Z,76.11
2023-03-16T06:49:13.312Z,75.47
2023-03-16T06:51:44.283Z,75.04
2023-03-16T06:54:13.626Z,74.85
2023-03-16T06:56:43.664Z,74.41
2023-03-16T06:59:13.226Z,74.08
2023-03-16T07:01:42.415Z,73.35
2023-03-16T07:04:12.717Z,73.30
2023-03-16T07:06:44.809Z,72.37
2023-03-16T07:09:14.968Z,71.93
2023-03-16T07:11:44.814Z,71.35
2023-03-16T07:14:13.679Z,71.08
2023-03-16T07:16:43.821Z,70.21
2023-03-16T07:19:12.846Z,69.91
2023-03-16T07:21:42.092Z,68.93
2023-03-16T07:24:17.564Z,68.42
2023-03-16T07:26:47.825Z,67.33
2023-03-16T07:29:25.592Z,66.49
2023-03-16T07:31:55.464Z,66.58
2023-03-16T07:34:30.193Z,65.76
2023-03-16T07:37:01.110Z,65.27
2023-03-16T07:39:34.343Z,65.08
2023-03-16T07:42:10.175Z,65.08
2023-03-16T07:44:51.786Z,64.63
2023-03-16T07:47:22.145Z,64.80
2023-03-16T07:49:53.493Z,64.02
2023-03-16T07:52:23.081Z,64.38
2023-03-16T07:54:55.257Z,63.23
2023-03-16T07:57:24.458Z,62.68
2023-03-16T07:59:53.297Z,62.12
2023-03-16T08:02:22.901Z,61.12
2023-03-16T08:04:52.654Z,60.49
2023-03-16T08:07:22.168Z,60.93
2023-03-16T08:10:15.386Z,60.66
2023-03-16T08:12:54.940Z,60.24
2023-03-16T08:15:25.006Z,60.19
2023-03-16T08:18:02.422Z,60.61
2023-03-16T08:20:32.353Z,61.09
2023-03-16T08:23:01.707Z,60.23
2023-03-16T08:25:39.494Z,59.95
2023-03-16T08:28:12.724Z,60.33
2023-03-16T08:30:48.180Z,59.03
2023-03-16T08:33:39.764Z,58.79
2023-03-16T08:36:15.474Z,58.41
2023-03-16T08:39:03.824Z,57.68
2023-03-16T08:41:38.207Z,56.83
2023-03-16T08:44:13.004Z,57.12
2023-03-16T08:46:42.595Z,57.65
2023-03-16T08:49:13.678Z,56.32
2023-03-16T08:51:44.947Z,56.63
2023-03-16T08:54:16.049Z,55.88
2023-03-16T08:56:46.299Z,55.21
2023-03-16T08:59:28.759Z,54.98
2023-03-16T09:01:58.854Z,54.09
2023-03-16T09:04:30.005Z,54.63
2023-03-16T09:07:08.330Z,53.63
2023-03-16T09:09:39.798Z,52.53
2023-03-16T09:12:10.554Z,51.95
2023-03-16T09:14:40.469Z,51.04
2023-03-16T09:17:11.760Z,50.85
2023-03-16T09:19:50.973Z,49.66
2023-03-16T09:22:20.681Z,48.65
2023-03-16T09:24:51.330Z,48.54
2023-03-16T09:27:22.502Z,48.63
2023-03-16T09:29:53.174Z,48.27
2023-03-16T09:32:22.074Z,47.80
2023-03-16T09:34:51.720Z,46.06
2023-03-16T09:37:20.567Z,44.84
2023-03-16T09:39:50.223Z,45.00
2023-03-16T09:42:31.255Z,44.91
2023-03-16T09:45:15.763Z,44.36
2023-03-16T09:47:48.936Z,43.28
2023-03-16T09:50:30.276Z,43.64
2023-03-16T09:53:18.756Z,43.15
2023-03-16T09:55:55.347Z,42.90
2023-03-16T09:58:27.225Z,41.29
2023-03-16T10:01:10.859Z,39.64
2023-03-16T10:04:03.500Z,38.91
2023-03-16T10:06:33.209Z,35.76
2023-03-16T10:09:22.948Z,36.16
2023-03-16T10:11:58.248Z,35.82
2023-03-16T10:14:38.605Z,33.92
2023-03-16T10:17:17.124Z,33.15
2023-03-16T10:19:53.969Z,33.49
2023-03-16T10:22:26.518Z,31.84
2023-03-16T10:25:09.389Z,32.70
2023-03-16T10:27:42.121Z,32.01
2023-03-16T10:30:24.917Z,32.77
2023-03-16T10:32:54.667Z,32.93
2023-03-16T10:35:46.060Z,32.78
2023-03-16T10:38:31.104Z,35.16
2023-03-16T10:41:02.186Z,35.17
2023-03-16T10:43:32.246Z,34.94
2023-03-16T10:46:03.312Z,34.28
2023-03-16T10:48:34.980Z,35.80
2023-03-16T10:51:10.198Z,38.60
2023-03-16T10:53:45.648Z,40.39
2023-03-16T10:56:23.873Z,41.18
2023-03-16T10:58:54.248Z,42.53
2023-03-16T11:01:29.389Z,43.86
2023-03-16T11:04:00.892Z,45.29
2023-03-16T11:06:32.654Z,46.10
2023-03-16T11:09:08.960Z,46.93
2023-03-16T11:11:38.259Z,47.10
2023-03-16T11:14:15.413Z,42.51
2023-03-16T11:16:53.378Z,38.05
2023-03-16T11:19:29.252Z,37.45
2023-03-16T11:22:05.203Z,39.06
2023-03-16T11:24:46.700Z,41.62
2023-03-16T11:27:25.212Z,43.09
2023-03-16T11:30:09.779Z,44.34
2023-03-16T11:32:46.386Z,45.27
2023-03-16T11:35:19.595Z,46.10
2023-03-16T11:38:06.482Z,45.94
2023-03-16T11:40:49.281Z,45.79
2023-03-16T11:43:49.368Z,45.04
2023-03-16T11:46:24.956Z,43.60
2023-03-16T11:49:42.195Z,45.09
2023-03-16T11:52:24.719Z,45.64
2023-03-16T11:55:07.881Z,46.01
2023-03-16T11:57:54.968Z,45.31
2023-03-16T12:00:35.643Z,44.61
2023-03-16T12:03:34.116Z,44.95
2023-03-16T12:06:23.789Z,46.00
2023-03-16T12:09:30.270Z,46.63
2023-03-16T12:12:12.916Z,47.58
2023-03-16T12:14:55.517Z,47.96
2023-03-16T12:17:30.522Z,49.25
2023-03-16T12:20:07.169Z,49.02
2023-03-16T12:22:45.207Z,49.07
2023-03-16T12:25:22.252Z,49.10
2023-03-16T12:27:55.914Z,49.07
2023-03-16T12:30:42.557Z,49.16
2023-03-16T12:33:23.771Z,49.90
2023-03-16T12:36:03.392Z,50.24
2023-03-16T12:38:48.712Z,50.21
2023-03-16T12:41:34.581Z,50.90
2023-03-16T12:44:17.445Z,51.31
2023-03-16T12:46:59.392Z,52.13
2023-03-16T12:49:34.279Z,52.15
2023-03-16T12:52:07.092Z,52.18
2023-03-16T12:54:38.066Z,52.05
2023-03-16T12:57:10.651Z,50.51
2023-03-16T12:59:43.582Z,49.68
2023-03-16T13:02:19.630Z,48.05
2023-03-16T13:04:59.046Z,47.51
2023-03-16T13:07:32.209Z,47.40
2023-03-16T13:10:08.919Z,47.41
2023-03-16T13:12:41.918Z,48.24
2023-03-16T13:15:29.824Z,48.67
2023-03-16T13:18:25.007Z,49.27
2023-03-16T13:21:01.747Z,49.17
2023-03-16T13:23:58.052Z,49.00
2023-03-16T13:26:42.193Z,48.73
2023-03-16T13:29:28.042Z,48.91
2023-03-16T13:32:00.272Z,46.11
2023-03-16T13:34:32.381Z,45.16
2023-03-16T13:37:02.667Z,44.88
2023-03-16T13:39:33.724Z,45.46
2023-03-16T13:42:17.915Z,43.78
2023-03-16T13:44:48.057Z,42.90
2023-03-16T13:47:20.624Z,43.52
2023-03-16T13:49:53.445Z,43.61
2023-03-16T13:52:29.327Z,43.68
2023-03-16T13:55:01.044Z,43.70
2023-03-16T13:57:38.273Z,44.36
2023-03-16T14:00:20.482Z,44.62
2023-03-16T14:02:55.324Z,45.04
2023-03-16T14:05:33.231Z,44.74
2023-03-16T14:08:02.282Z,45.30
2023-03-16T14:10:36.074Z,45.87
2023-03-16T14:13:34.170Z,46.23
2023-03-16T14:16:12.896Z,45.81
2023-03-16T14:18:46.076Z,46.61
2023-03-16T14:21:20.712Z,46.58
2023-03-16T14:23:55.206Z,46.52
2023-03-16T14:26:25.081Z,46.03
2023-03-16T14:29:06.380Z,46.34
2023-03-16T14:31:38.765Z,47.08
2023-03-16T14:34:22.491Z,47.43
2023-03-16T14:36:51.563Z,47.19
2023-03-16T14:39:22.992Z,46.67
2023-03-16T14:41:53.603Z,46.40
2023-03-16T14:44:32.026Z,46.05
2023-03-16T14:47:02.619Z,46.06
2023-03-16T14:49:34.705Z,46.85
2023-03-16T14:52:07.629Z,47.74
2023-03-16T14:54:36.714Z,48.47
2023-03-16T14:57:07.236Z,49.26
2023-03-16T14:59:37.502Z,49.48
2023-03-16T15:02:17.447Z,49.76
2023-03-16T15:04:48.566Z,49.84
2023-03-16T15:07:26.739Z,49.85
2023-03-16T15:10:01.851Z,49.84
2023-03-16T15:12:30.998Z,50.04
2023-03-16T15:15:16.659Z,50.44
2023-03-16T15:17:46.914Z,50.20
2023-03-16T15:20:18.709Z,49.99
2023-03-16T15:22:49.736Z,50.41
2023-03-16T15:25:37.039Z,49.99
2023-03-16T15:28:15.868Z,49.62
2023-03-16T15:30:48.245Z,49.87
2023-03-16T15:33:18.214Z,47.40
2023-03-16T15:35:50.342Z,46.02
2023-03-16T15:38:24.200Z,45.15
2023-03-16T15:40:54.626Z,45.53
2023-03-16T15:43:27.306Z,45.51
2023-03-16T15:45:59.984Z,45.91
2023-03-16T15:48:29.200Z,45.56
2023-03-16T15:51:01.903Z,45.85
2023-03-16T15:53:37.761Z,46.19
2023-03-16T15:56:10.653Z,46.91
2023-03-16T15:58:45.918Z,47.44
2023-03-16T16:01:25.473Z,48.52
2023-03-16T16:03:56.144Z,48.60
2023-03-16T16:06:25.197Z,48.27
2023-03-16T16:08:54.334Z,48.14
2023-03-16T16:11:27.531Z,48.41
2023-03-16T16:13:59.432Z,48.29
2023-03-16T16:16:33.219Z,49.08
2023-03-16T16:19:02.392Z,49.12
2023-03-16T16:21:31.640Z,49.53
2023-03-16T16:24:02.276Z,49.81
2023-03-16T16:26:55.159Z,49.71
2023-03-16T16:29:27.221Z,50.01
2023-03-16T16:31:57.553Z,50.27
2023-03-16T16:34:28.047Z,50.48
2023-03-16T16:36:58.525Z,50.80
2023-03-16T16:39:28.141Z,51.22
2023-03-16T16:41:58.105Z,51.65
2023-03-16T16:44:34.031Z,52.10
2023-03-16T16:47:16.962Z,52.51
2023-03-16T16:49:46.563Z,52.61
2023-03-16T16:52:18.479Z,52.87
2023-03-16T16:54:47.745Z,53.19
2023-03-16T16:57:20.887Z,53.85
2023-03-16T16:59:50.982Z,54.05
2023-03-16T17:02:32.135Z,54.05
2023-03-16T17:05:01.455Z,54.28
2023-03-16T17:07:30.884Z,54.26
2023-03-16T17:10:00.090Z,54.40
2023-03-16T17:12:29.645Z,54.42
2023-03-16T17:14:58.911Z,54.48
2023-03-16T17:17:29.252Z,54.75
2023-03-16T17:19:58.324Z,54.66
2023-03-16T17:22:30.388Z,55.03
2023-03-16T17:25:00.474Z,55.26
2023-03-16T17:27:33.049Z,55.48
2023-03-16T17:30:03.118Z,55.82
2023-03-16T17:32:33.896Z,56.38
2023-03-16T17:35:03.086Z,56.62
2023-03-16T17:37:32.052Z,57.56
2023-03-16T17:40:01.581Z,57.52
2023-03-16T17:42:30.461Z,57.02
2023-03-16T17:45:00.149Z,58.22
2023-03-16T17:47:38.498Z,58.07
2023-03-16T17:50:24.480Z,58.68
2023-03-16T17:52:54.248Z,58.95
2023-03-16T17:55:25.032Z,59.36
2023-03-16T17:57:57.064Z,60.09
2023-03-16T18:00:31.834Z,60.15
2023-03-16T18:03:05.633Z,60.03
2023-03-16T18:05:37.652Z,60.55
2023-03-16T18:08:17.464Z,60.79
2023-03-16T18:10:49.621Z,61.73
2023-03-16T18:13:24.216Z,61.63
2023-03-16T18:15:55.859Z,61.62
2023-03-16T18:18:29.130Z,61.93
2023-03-16T18:21:00.574Z,62.00
2023-03-16T18:23:33.570Z,62.31
2023-03-16T18:26:06.824Z,62.14
2023-03-16T18:28:36.540Z,62.24
2023-03-16T18:31:08.030Z,62.97
2023-03-16T18:33:42.460Z,63.42
2023-03-16T18:36:18.818Z,63.50
2023-03-16T18:38:50.661Z,64.08
2023-03-16T18:41:24.772Z,63.70
2023-03-16T18:43:57.636Z,64.26
2023-03-16T18:46:30.384Z,64.07
2023-03-16T18:49:04.090Z,63.97
2023-03-16T18:51:33.347Z,64.92
2023-03-16T18:54:03.547Z,64.59
2023-03-16T18:56:33.035Z,64.54
2023-03-16T18:59:02.440Z,64.57
2023-03-16T19:01:37.939Z,65.00
2023-03-16T19:04:19.838Z,64.97
2023-03-16T19:06:52.056Z,65.49
2023-03-16T19:09:23.383Z,65.63
2023-03-16T19:11:52.857Z,65.77
2023-03-16T19:14:24.602Z,65.55
2023-03-16T19:16:56.265Z,64.96
2023-03-16T19:19:28.002Z,65.27
2023-03-16T19:22:04.548Z,65.67
2023-03-16T19:24:42.573Z,65.68
2023-03-16T19:27:22.487Z,65.89
2023-03-16T19:29:52.709Z,66.14
2023-03-16T19:32:24.667Z,66.02
2023-03-16T19:34:54.904Z,66.55
2023-03-16T19:37:26.740Z,66.82
2023-03-16T19:39:56.110Z,66.43
2023-03-16T19:42:33.696Z,66.41
2023-03-16T19:45:03.934Z,66.27
2023-03-16T19:47:36.680Z,66.13
2023-03-16T19:50:17.584Z,66.18
2023-03-16T19:52:47.618Z,65.88
2023-03-16T19:55:39.449Z,65.48
2023-03-16T19:58:20.996Z,66.09
2023-03-16T20:00:51.132Z,66.56
2023-03-16T20:03:20.741Z,66.44
2023-03-16T20:05:53.746Z,66.56
2023-03-16T20:08:26.298Z,66.35
2023-03-16T20:11:08.720Z,65.65
2023-03-16T20:13:38.534Z,65.60
2023-03-16T20:16:12.609Z,65.33
2023-03-16T20:18:42.337Z,65.36
2023-03-16T20:21:17.729Z,65.59
2023-03-16T20:23:49.907Z,65.75
2023-03-16T20:26:23.330Z,65.85
2023-03-16T20:28:53.422Z,66.13
2023-03-16T20:31:25.751Z,65.66
2023-03-16T20:33:56.240Z,65.93
2023-03-16T20:36:29.174Z,66.08
2023-03-16T20:38:58.459Z,66.00
2023-03-16T20:41:32.364Z,66.33
2023-03-16T20:44:03.233Z,66.50
2023-03-16T20:46:34.453Z,66.71
2023-03-16T20:49:03.820Z,66.83
2023-03-16T20:51:34.042Z,66.55
2023-03-16T20:54:03.175Z,66.27
2023-03-16T20:56:32.389Z,66.46
2023-03-16T20:59:01.641Z,66.14
2023-03-16T21:01:32.162Z,66.83
2023-03-16T21:04:01.408Z,66.45
2023-03-16T21:06:34.493Z,66.99
2023-03-16T21:09:03.658Z,66.91
2023-03-16T21:11:37.968Z,67.03
2023-03-16T21:14:16.616Z,67.07
2023-03-16T21:16:46.152Z,67.12
2023-03-16T21:19:17.692Z,67.09
2023-03-16T21:21:47.954Z,66.82
2023-03-16T21:24:17.477Z,67.74
2023-03-16T21:26:47.569Z,67.91
2023-03-16T21:29:21.975Z,67.69
2023-03-16T21:31:51.868Z,67.41
2023-03-16T21:34:27.482Z,67.36
2023-03-16T21:36:59.348Z,68.28
2023-03-16T21:39:29.352Z,68.48
2023-03-16T21:41:58.160Z,68.74
2023-03-16T21:44:27.293Z,69.09
2023-03-16T21:46:56.276Z,68.83
2023-03-16T21:49:25.596Z,68.65
2023-03-16T21:51:54.619Z,69.48
2023-03-16T21:54:25.082Z,69.37
2023-03-16T21:56:53.924Z,69.26
2023-03-16T21:59:23.912Z,68.97
2023-03-16T22:02:01.542Z,68.93
2023-03-16T22:04:31.720Z,69.55
2023-03-16T22:07:00.547Z,69.85
2023-03-16T22:09:32.915Z,69.75
2023-03-16T22:12:01.680Z,70.04
2023-03-16T22:14:31.044Z,70.56
2023-03-16T22:16:59.894Z,70.57
2023-03-16T22:19:29.415Z,71.16
2023-03-16T22:21:58.615Z,71.46
2023-03-16T22:24:34.870Z,71.38
2023-03-16T22:27:04.370Z,71.05
2023-03-16T22:29:34.514Z,70.92
2023-03-16T22:32:08.700Z,71.58
2023-03-16T22:34:45.220Z,71.08
2023-03-16T22:37:20.310Z,72.05
2023-03-16T22:39:51.614Z,72.18
2023-03-16T22:42:35.862Z,72.48
2023-03-16T22:45:16.942Z,72.67
2023-03-16T22:47:47.802Z,73.09
2023-03-16T22:50:18.679Z,73.30
2023-03-16T22:52:51.236Z,73.16
2023-03-16T22:55:28.206Z,73.33
2023-03-16T22:58:12.300Z,73.17
2023-03-16T23:00:41.638Z,73.45
2023-03-16T23:03:18.975Z,73.45
2023-03-16T23:05:48.351Z,73.69
2023-03-16T23:08:21.178Z,73.52
2023-03-16T23:10:53.561Z,73.67
2023-03-16T23:13:27.097Z,73.62
2023-03-16T23:15:56.948Z,73.68
2023-03-16T23:18:27.618Z,74.62
2023-03-16T23:20:57.303Z,74.43
2023-03-16T23:23:26.131Z,74.88
2023-03-16T23:25:56.734Z,74.60
2023-03-16T23:28:26.178Z,74.51
2023-03-16T23:30:55.537Z,74.84
2023-03-16T23:33:24.324Z,74.31
2023-03-16T23:35:53.408Z,74.27
2023-03-16T23:38:22.408Z,74.22
2023-03-16T23:40:51.482Z,74.34
2023-03-16T23:43:21.711Z,74.17
2023-03-16T23:45:51.249Z,73.83
2023-03-16T23:48:23.656Z,74.39
2023-03-16T23:50:56.350Z,73.79
2023-03-16T23:53:25.620Z,73.96
2023-03-16T23:55:54.700Z,73.74
2023-03-16T23:58:24.954Z,74.25
